Aeroporto :
LOGIN :

Iscrizione | Disclaimer

   EN    FR    IT 

 










Sommario :    VFR   VFR Marginale   IFR   IFR Intensivo   IFR Molto Intensivo
Visibilità : 
Base nubi : 
>= 8 km
>= 3000ft
5 / 8 km
1000 / 3000 ft
1500m / 5 km
500 / 1000 ft
800 / 1500m
200 / 500 ft
< 800m
< 200 ft
Simboli :   Temporali  Nebbia  Neve Forte  Precipitazioni Forti  Vento > 20 kt
SIGMETs :   Varie  Temporali  Ghiacco  Turbolenza  Onda orograficha  Ceneri Vulcaniche






- Altitudine del aeroporto : 782 ft
- Codice IATA : BGY


LIME - Orio al Serio International - Bergamo

ULTIMO METAR :
  • 261920Z 02004KT 5000 BR NSC 03/03 Q1023 NOSIG

METARs OBSOLETI :
  • 261850Z VRB01KT 5000 BR NSC 03/03 Q1023 NOSIG
  • 261820Z 35001KT 5000 R28/1400U BR NSC 03/03 Q1023 NOSIG
  • 261750Z 03002KT 4000 BR NSC 04/04 Q1023 NOSIG

TAF TAF LIME
Valido dal 26 a 18 ore il 27 a 18 ore UTC


261700Z 2618/2718 VRB04KT 3000 BR
TEMPO 2700/2706 0600 FG BKN004
BECMG 2708/2710 6000



MetMap, La meteo Aeronautica in un colpo d'occhio ! - Copyright ORBIFLY Dicembre 2007 - Disclaimer

ORBIFLY MET'MAP TEAM :

Programmazione e sviluppo : Alexandra Zaïnal
Concezione : Baudouin d'Aumeries
Aiuto per la programmazione : Marc-Olivier Méhu
Supporto tecnico e logistico : Manuel Goepfert
Aiuto per la traduzione : Arnaldo La Scala

Contatto : metmap@orbifly.com




FONTI E CREDITI :

   NOAA